Monticello, North Carolina
Current Conditions -  °F | °C
As of 6:54 PM on Friday 21 Nov 2014 (Local Time) from KBUY Reporting Station
Clear Clear  
Wind Chill: 33°   Ceiling: Unl
Heat Index: 33°   Visibility: 10mi
Dew Point: 13°   Wind: 0mph
Humidity: 43%   Direction: NA
Pressure: 30.49"   Gusts: NA
Location:  36.2136°N, 79.6775°W
Report Text: KBUY 212354Z AUTO 00000KT 10SM CLR 01/M11 A3049 RMK AO2 SLP328 T00061106 10083 20000 53016
Loading
Personal Weather Stations






























Interactive Weather Map New forecast layout! Learn more

10-Day Weather Forecast

Advertisements
Track Severe Weather on mobile